createdAt,value
2018-09-28T00:03:42.024Z,21.05
2018-09-28T00:13:45.768Z,20.98
2018-09-28T00:23:50.251Z,20.96
2018-09-28T00:34:02.290Z,20.95
2018-09-28T00:44:06.044Z,20.96
2018-09-28T00:54:10.376Z,20.94
2018-09-28T01:04:14.592Z,20.91
2018-09-28T01:14:18.174Z,20.90
2018-09-28T01:24:21.275Z,20.91
2018-09-28T01:34:24.329Z,20.89
2018-09-28T01:44:28.842Z,20.87
2018-09-28T01:54:32.030Z,20.86
2018-09-28T02:04:35.462Z,20.85
2018-09-28T02:14:38.648Z,20.82
2018-09-28T02:24:42.331Z,20.77
2018-09-28T02:34:45.383Z,20.78
2018-09-28T02:44:48.744Z,20.80
2018-09-28T02:54:52.137Z,20.79
2018-09-28T03:04:55.236Z,20.77
2018-09-28T03:14:58.484Z,20.76
2018-09-28T03:25:01.804Z,20.74
2018-09-28T03:35:05.159Z,20.74
2018-09-28T03:45:08.765Z,20.75
2018-09-28T03:55:13.159Z,20.67
2018-09-28T04:05:17.039Z,20.67
2018-09-28T04:15:20.118Z,20.70
2018-09-28T04:25:23.287Z,20.63
2018-09-28T04:35:26.339Z,20.64
2018-09-28T04:45:29.374Z,20.66
2018-09-28T04:55:32.412Z,20.60
2018-09-28T05:05:35.570Z,20.62
2018-09-28T05:15:38.515Z,20.63
2018-09-28T05:25:41.692Z,20.61
2018-09-28T05:35:44.746Z,20.62
2018-09-28T05:45:49.377Z,20.58
2018-09-28T05:55:53.152Z,20.60
2018-09-28T06:06:00.103Z,20.57
2018-09-28T06:16:03.220Z,20.59
2018-09-28T06:26:06.526Z,20.61
2018-09-28T06:36:09.939Z,20.60
2018-09-28T06:46:12.975Z,20.58
2018-09-28T06:56:16.192Z,20.57
2018-09-28T07:06:19.882Z,20.68
2018-09-28T07:16:22.963Z,20.97
2018-09-28T07:26:26.159Z,21.03
2018-09-28T07:36:29.757Z,20.91
2018-09-28T07:46:33.528Z,21.05
2018-09-28T07:56:37.261Z,20.88
2018-09-28T08:06:40.956Z,21.11
2018-09-28T08:16:44.085Z,21.34
2018-09-28T08:26:47.162Z,21.39
2018-09-28T08:36:51.085Z,21.05
2018-09-28T08:46:54.310Z,21.08
2018-09-28T08:56:57.565Z,21.08
2018-09-28T09:07:00.808Z,21.39
2018-09-28T09:17:05.442Z,21.49
2018-09-28T09:27:08.498Z,21.58
2018-09-28T09:37:11.614Z,21.95
2018-09-28T09:47:14.744Z,21.82
2018-09-28T09:57:17.971Z,21.77
2018-09-28T10:07:20.986Z,21.85
2018-09-28T10:17:24.097Z,22.06
2018-09-28T10:27:27.151Z,22.29
2018-09-28T10:37:30.254Z,22.26
2018-09-28T10:47:33.480Z,22.46
2018-09-28T10:57:36.482Z,21.67
2018-09-28T11:07:39.640Z,22.46
2018-09-28T11:17:42.810Z,22.40
2018-09-28T11:27:45.963Z,22.27
2018-09-28T11:37:49.158Z,22.08
2018-09-28T11:47:52.247Z,22.72
2018-09-28T11:57:55.286Z,22.22
2018-09-28T12:07:58.576Z,22.15
2018-09-28T12:18:01.643Z,22.09
2018-09-28T12:28:04.782Z,22.24
2018-09-28T12:38:07.923Z,22.11
2018-09-28T12:48:11.018Z,22.02
2018-09-28T12:58:14.073Z,22.19
2018-09-28T13:08:17.179Z,22.12
2018-09-28T13:18:20.385Z,22.22
2018-09-28T13:28:23.415Z,21.56
2018-09-28T13:38:26.696Z,21.26
2018-09-28T13:48:29.757Z,21.90
2018-09-28T13:58:32.802Z,21.66
2018-09-28T14:08:36.021Z,21.60
2018-09-28T14:18:39.177Z,21.68
2018-09-28T14:28:42.260Z,21.58
2018-09-28T14:38:45.441Z,21.57
2018-09-28T14:48:48.661Z,22.02
2018-09-28T14:58:51.694Z,21.70
2018-09-28T15:08:54.851Z,21.59
2018-09-28T15:18:57.909Z,21.55
2018-09-28T15:29:01.047Z,21.61
2018-09-28T15:39:06.015Z,22.28
2018-09-28T15:49:09.195Z,22.17
2018-09-28T15:59:12.416Z,22.78
2018-09-28T16:09:15.531Z,23.17
2018-09-28T16:19:18.612Z,23.26
2018-09-28T16:29:21.823Z,23.35
2018-09-28T16:39:24.873Z,23.32
2018-09-28T16:49:28.011Z,23.38
2018-09-28T16:59:31.175Z,23.09
2018-09-28T17:09:34.256Z,22.56
2018-09-28T17:19:37.414Z,22.38
2018-09-28T17:29:40.553Z,21.93
2018-09-28T17:39:43.748Z,21.69
2018-09-28T17:49:46.817Z,21.75
2018-09-28T17:59:49.955Z,21.83
2018-09-28T18:09:52.940Z,22.04
2018-09-28T18:19:56.082Z,21.71
2018-09-28T18:29:59.337Z,21.69
2018-09-28T18:40:02.499Z,21.69
2018-09-28T18:50:05.631Z,21.66
2018-09-28T19:00:08.762Z,21.74
2018-09-28T19:10:12.080Z,21.59
2018-09-28T19:20:15.279Z,21.54
2018-09-28T19:30:18.367Z,21.66
2018-09-28T19:40:21.397Z,21.54
2018-09-28T19:50:24.665Z,21.63
2018-09-28T20:00:27.698Z,21.60
2018-09-28T20:10:30.800Z,21.56
2018-09-28T20:20:34.028Z,22.04
2018-09-28T20:30:37.144Z,21.71
2018-09-28T20:40:40.238Z,21.97
2018-09-28T20:50:43.461Z,21.67
2018-09-28T21:00:46.459Z,21.64
2018-09-28T21:10:49.519Z,21.59
2018-09-28T21:20:53.406Z,21.60
2018-09-28T21:30:56.613Z,21.51
2018-09-28T21:40:59.676Z,21.67
2018-09-28T21:51:02.882Z,21.65
2018-09-28T22:01:05.998Z,21.72
2018-09-28T22:11:09.335Z,21.56
2018-09-28T22:21:12.459Z,21.50
2018-09-28T22:31:15.760Z,21.43
2018-09-28T22:41:18.691Z,21.43
2018-09-28T22:51:21.712Z,21.31
2018-09-28T23:01:24.766Z,21.36
2018-09-28T23:11:27.757Z,21.27
2018-09-28T23:21:30.862Z,21.21
2018-09-28T23:31:33.865Z,21.19
2018-09-28T23:41:37.067Z,21.15
2018-09-28T23:51:40.105Z,21.10
